Time;durP1;ratioP1;P1;durP2;ratioP2;P2;SDS_P1;SDS_P2;PMS_P1;PMS_P2;Temp;Humidity;BMP_temperature;BMP_pressure;BME280_temperature;BME280_humidity;BME280_pressure;Samples;Min_cycle;Max_cycle;Signal;HPM_P1;HPM_P2
2021/01/03 05:19:14;;;;;;;1.50;1.40;;;-6.10;99.90;;;;;;5642520;23;20101;-71
2021/01/03 05:21:48;;;;;;;1.50;1.40;;;-6.10;99.90;;;;;;4992387;28;20034;-72
2021/01/03 05:24:14;;;;;;;1.40;1.30;;;-6.10;99.90;;;;;;4992230;28;20034;-71
2021/01/03 05:26:41;;;;;;;1.30;1.30;;;-6.10;99.90;;;;;;4992567;28;20026;-73
2021/01/03 05:29:10;;;;;;;1.60;1.50;;;-6.10;99.90;;;;;;4991987;28;20026;-70
2021/01/03 05:31:37;;;;;;;1.30;1.30;;;-6.10;99.90;;;;;;4992429;28;20117;-71
2021/01/03 05:34:09;;;;;;;1.60;1.50;;;-6.10;99.90;;;;;;4993427;28;20030;-68
2021/01/03 05:36:46;;;;;;;1.30;1.30;;;-6.10;99.90;;;;;;4995903;28;20499;-72
2021/01/03 05:39:27;;;;;;;1.55;1.40;;;-6.00;99.90;;;;;;4995884;28;20038;-67
2021/01/03 05:42:00;;;;;;;1.35;1.25;;;-6.00;99.90;;;;;;4995812;28;20027;-69
2021/01/03 05:44:30;;;;;;;1.50;1.40;;;-5.80;99.90;;;;;;4996026;28;20428;-76
2021/01/03 05:47:25;;;;;;;1.20;1.20;;;-5.70;99.90;;;;;;4995663;28;20109;-71
2021/01/03 05:50:23;;;;;;;1.60;1.35;;;-5.30;99.90;;;;;;4995305;28;20025;-80
2021/01/03 05:52:59;;;;;;;1.42;1.33;;;-5.40;99.90;;;;;;4975546;28;20121;-79
2021/01/03 05:55:28;;;;;;;1.65;1.55;;;-5.60;99.90;;;;;;4995376;28;20389;-84
2021/01/03 05:58:03;;;;;;;1.80;1.70;;;-5.60;99.90;;;;;;4995470;28;20034;-81
2021/01/03 06:00:29;;;;;;;2.50;2.28;;;-5.60;99.90;;;;;;4994723;28;20066;-80
2021/01/03 06:03:26;;;;;;;1.80;1.70;;;-5.60;99.90;;;;;;4995692;28;20022;-80
2021/01/03 06:06:18;;;;;;;1.67;1.58;;;-5.60;99.90;;;;;;4994120;28;20030;-80
2021/01/03 06:08:46;;;;;;;1.90;1.80;;;-5.70;99.90;;;;;;4994365;28;20493;-80
2021/01/03 06:11:20;;;;;;;1.60;1.50;;;-5.80;99.90;;;;;;4994919;28;20107;-80
2021/01/03 06:13:48;;;;;;;1.50;1.40;;;-5.80;99.90;;;;;;4995160;28;20149;-81
2021/01/03 06:16:17;;;;;;;1.60;1.50;;;-5.70;99.90;;;;;;4995380;28;20030;-79
2021/01/03 06:18:51;;;;;;;1.80;1.70;;;-5.70;99.90;;;;;;4990070;28;20051;-80
2021/01/03 06:21:29;;;;;;;1.40;1.30;;;-5.60;99.90;;;;;;4975523;28;20025;-70
2021/01/03 06:24:03;;;;;;;1.60;1.50;;;-5.60;99.90;;;;;;4975254;28;20035;-70
2021/01/03 06:26:35;;;;;;;1.10;1.10;;;-5.50;99.90;;;;;;4974319;28;20023;-69
2021/01/03 06:29:09;;;;;;;3.03;2.17;;;-5.50;99.90;;;;;;4975396;28;20034;-68
2021/01/03 06:31:43;;;;;;;2.10;1.90;;;-5.40;99.90;;;;;;4975506;28;20695;-73
2021/01/03 06:34:14;;;;;;;1.67;1.58;;;-5.40;99.90;;;;;;4975257;28;20113;-72
2021/01/03 06:36:54;;;;;;;1.67;1.58;;;-5.30;99.90;;;;;;4975457;28;20101;-72
2021/01/03 06:40:06;;;;;;;1.40;1.30;;;-4.40;99.90;;;;;;4975590;28;20038;-72
2021/01/03 06:43:04;;;;;;;1.10;1.10;;;-3.90;99.90;;;;;;4944561;28;20037;-72
2021/01/03 06:45:58;;;;;;;1.20;1.10;;;-3.50;99.90;;;;;;4974457;28;20030;-73
2021/01/03 06:48:42;;;;;;;1.58;1.48;;;-3.20;99.90;;;;;;4975291;28;20033;-72
2021/01/03 06:51:51;;;;;;;1.25;1.15;;;-3.20;99.90;;;;;;4975053;28;20027;-72
2021/01/03 06:55:02;;;;;;;1.38;1.38;;;-3.60;99.90;;;;;;4943229;28;20042;-71
2021/01/03 06:58:05;;;;;;;1.40;1.30;;;-4.00;99.90;;;;;;4975085;28;20481;-71
2021/01/03 07:01:10;;;;;;;1.40;1.30;;;-4.20;99.90;;;;;;4974879;28;20077;-71
2021/01/03 07:03:36;;;;;;;1.20;1.20;;;-4.40;99.90;;;;;;4974618;28;20035;-72
2021/01/03 07:06:06;;;;;;;1.20;1.20;;;-4.40;99.90;;;;;;4974675;28;20026;-76
2021/01/03 07:08:39;;;;;;;1.20;1.10;;;-4.50;99.90;;;;;;4975059;28;20026;-76
2021/01/03 07:11:42;;;;;;;1.20;1.20;;;-4.60;99.90;;;;;;4974639;28;20031;-82
2021/01/03 07:14:33;;;;;;;1.27;1.23;;;-4.60;99.90;;;;;;4974835;28;20027;-75
2021/01/03 07:17:00;;;;;;;1.23;1.20;;;-3.70;99.90;;;;;;4968655;28;20050;-73
2021/01/03 07:19:40;;;;;;;3.28;1.90;;;-3.40;99.90;;;;;;4973574;28;20077;-69
2021/01/03 07:22:20;;;;;;;2.60;1.70;;;-3.70;99.90;;;;;;4972422;28;20027;-70
2021/01/03 07:24:51;;;;;;;1.42;1.33;;;-4.00;99.90;;;;;;4972471;28;20449;-70
2021/01/03 07:27:38;;;;;;;1.25;1.25;;;-4.20;99.90;;;;;;4974100;28;20027;-69
2021/01/03 07:30:04;;;;;;;1.00;1.00;;;-4.30;99.90;;;;;;4972584;28;20037;-69
2021/01/03 07:32:46;;;;;;;1.10;1.10;;;-4.40;99.90;;;;;;4974132;28;20385;-68
2021/01/03 07:35:20;;;;;;;1.30;1.20;;;-4.40;99.90;;;;;;4972857;28;20077;-70
2021/01/03 07:37:46;;;;;;;1.05;1.05;;;-4.50;99.20;;;;;;4972062;28;20027;-68
2021/01/03 07:40:20;;;;;;;1.05;1.05;;;-4.50;99.90;;;;;;4973389;28;20034;-68
2021/01/03 07:42:45;;;;;;;0.98;0.98;;;-4.50;99.90;;;;;;4974182;28;20033;-68
2021/01/03 07:45:14;;;;;;;1.30;1.10;;;-4.50;99.90;;;;;;4974233;28;20118;-69
2021/01/03 07:47:50;;;;;;;1.10;1.10;;;-4.60;99.90;;;;;;4974082;28;20027;-69
2021/01/03 07:50:30;;;;;;;1.27;1.17;;;-4.60;96.50;;;;;;4973800;28;20035;-69
2021/01/03 07:52:57;;;;;;;1.38;1.33;;;-4.80;95.40;;;;;;4974149;28;20026;-72
2021/01/03 07:55:23;;;;;;;1.40;1.30;;;-4.80;95.20;;;;;;4974087;28;20026;-74
2021/01/03 07:58:00;;;;;;;1.10;1.10;;;-4.90;94.50;;;;;;4973793;28;20469;-73
2021/01/03 08:00:32;;;;;;;1.00;1.00;;;-5.00;93.90;;;;;;4973816;28;20482;-75
2021/01/03 08:03:04;;;;;;;1.10;1.10;;;-5.10;93.80;;;;;;4973795;28;20034;-73
2021/01/03 08:05:31;;;;;;;1.10;1.10;;;-5.20;93.40;;;;;;4973924;28;20022;-73
2021/01/03 08:08:14;;;;;;;1.20;1.20;;;-5.20;92.90;;;;;;4973815;28;20026;-74
2021/01/03 08:10:45;;;;;;;1.33;1.23;;;-5.30;92.30;;;;;;4973847;28;20054;-75
2021/01/03 08:13:21;;;;;;;1.40;1.20;;;-5.30;92.20;;;;;;4973697;28;20029;-75
2021/01/03 08:15:47;;;;;;;6.40;3.10;;;-5.30;92.20;;;;;;4973567;28;20029;-73
2021/01/03 08:18:17;;;;;;;3.28;2.67;;;-5.40;92.70;;;;;;4973421;28;20508;-69
2021/01/03 08:20:43;;;;;;;1.98;1.55;;;-5.40;93.50;;;;;;4972128;28;20066;-70
2021/01/03 08:23:26;;;;;;;1.40;1.30;;;-5.40;92.20;;;;;;4973562;28;20482;-70
2021/01/03 08:26:08;;;;;;;1.40;1.30;;;-5.50;91.00;;;;;;4973421;28;20058;-70
2021/01/03 08:28:48;;;;;;;1.30;1.27;;;-5.60;91.10;;;;;;4973439;28;20027;-72
2021/01/03 08:31:14;;;;;;;1.60;1.40;;;-5.60;90.80;;;;;;4973177;28;20031;-73
2021/01/03 08:33:42;;;;;;;1.40;1.30;;;-5.60;90.90;;;;;;4973780;28;20019;-77
2021/01/03 08:36:22;;;;;;;4.18;2.10;;;-5.70;90.60;;;;;;4973971;28;20101;-84
2021/01/03 08:38:48;;;;;;;2.97;1.90;;;-5.70;90.40;;;;;;4973330;28;20494;-79
2021/01/03 08:41:25;;;;;;;2.58;1.60;;;-5.70;90.60;;;;;;4973139;28;20039;-79
2021/01/03 08:43:51;;;;;;;1.58;1.48;;;-5.70;90.30;;;;;;4973363;28;20106;-77
2021/01/03 08:46:23;;;;;;;1.27;1.27;;;-5.80;90.20;;;;;;4973014;28;20034;-79
2021/01/03 08:48:58;;;;;;;1.50;1.40;;;-5.80;90.30;;;;;;4973253;28;20015;-80
2021/01/03 08:51:24;;;;;;;1.88;1.35;;;-5.80;90.10;;;;;;4973427;28;20065;-79
2021/01/03 08:54:06;;;;;;;2.13;1.77;;;-5.80;89.80;;;;;;4973306;28;20046;-79
2021/01/03 08:56:37;;;;;;;2.15;1.70;;;-5.90;89.90;;;;;;4973452;28;20061;-79
2021/01/03 08:59:03;;;;;;;4.10;1.92;;;-5.90;89.80;;;;;;4973028;28;20030;-79
2021/01/03 09:01:34;;;;;;;3.28;2.40;;;-6.00;90.00;;;;;;4973355;28;20027;-78
2021/01/03 09:04:13;;;;;;;4.30;2.60;;;-6.10;90.40;;;;;;4973237;28;20030;-76
2021/01/03 09:06:39;;;;;;;3.67;2.30;;;-6.20;90.30;;;;;;4973495;28;20042;-79
2021/01/03 09:09:32;;;;;;;2.58;1.90;;;-6.30;90.30;;;;;;4975040;28;20031;-78
2021/01/03 09:12:07;;;;;;;2.97;2.08;;;-6.40;90.50;;;;;;4974226;28;20027;-79
2021/01/03 09:14:35;;;;;;;2.08;1.63;;;-6.40;91.00;;;;;;4977026;28;20019;-78
2021/01/03 09:17:22;;;;;;;1.63;1.52;;;-6.30;91.20;;;;;;4976590;28;21022;-79
2021/01/03 09:19:54;;;;;;;1.70;1.60;;;-6.30;91.00;;;;;;4976754;28;20055;-79
2021/01/03 09:22:34;;;;;;;1.65;1.55;;;-6.30;90.90;;;;;;4976725;28;20186;-78
2021/01/03 09:25:25;;;;;;;1.55;1.40;;;-6.40;91.00;;;;;;4976450;28;20117;-74
2021/01/03 09:27:53;;;;;;;;;;;-6.30;99.90;;;;;;4975289;28;20027;-79
2021/01/03 09:30:39;;;;;;;1.88;1.50;;;-6.00;99.90;;;;;;4976697;28;20357;-76
2021/01/03 09:33:21;;;;;;;2.92;1.60;;;-6.10;99.00;;;;;;4976561;28;20038;-76
2021/01/03 09:35:59;;;;;;;1.70;1.60;;;-6.10;97.00;;;;;;4976430;28;20023;-77
2021/01/03 09:38:34;;;;;;;1.67;1.58;;;-6.00;95.80;;;;;;4976621;28;20027;-76
2021/01/03 09:41:22;;;;;;;1.63;1.52;;;-5.80;99.90;;;;;;4976311;28;20031;-82
2021/01/03 09:44:00;;;;;;;1.70;1.60;;;-5.20;99.90;;;;;;4976410;28;20026;-84
2021/01/03 09:46:32;;;;;;;1.63;1.52;;;-5.40;99.90;;;;;;4977346;28;20038;-85
2021/01/03 09:49:43;;;;;;;1.23;1.23;;;-5.50;99.90;;;;;;4976898;28;20019;-87
2021/01/03 09:52:22;;;;;;;1.70;1.60;;;-5.60;98.00;;;;;;4974693;28;20046;-87
2021/01/03 09:55:31;;;;;;;1.60;1.50;;;-5.70;95.60;;;;;;4977300;28;20026;-87
2021/01/03 09:58:03;;;;;;;1.65;1.55;;;-5.80;95.90;;;;;;4976838;28;20042;-85
2021/01/03 10:00:49;;;;;;;1.88;1.50;;;-5.90;94.80;;;;;;4974353;28;20538;-86
2021/01/03 10:03:24;;;;;;;1.70;1.60;;;-5.90;96.20;;;;;;4972166;28;20162;-84
2021/01/03 10:05:51;;;;;;;1.52;1.42;;;-5.80;96.60;;;;;;4975942;28;20031;-80
2021/01/03 10:08:25;;;;;;;1.63;1.52;;;-5.80;97.20;;;;;;4976508;28;20043;-80
2021/01/03 10:10:58;;;;;;;1.60;1.50;;;-5.80;96.10;;;;;;4976368;28;20482;-80
2021/01/03 10:13:26;;;;;;;2.70;2.10;;;-5.70;95.70;;;;;;4975445;28;20115;-77
2021/01/03 10:15:53;;;;;;;4.25;2.70;;;-5.70;95.70;;;;;;4977632;28;20039;-77
2021/01/03 10:18:35;;;;;;;3.65;2.63;;;-5.70;95.70;;;;;;4975697;28;20027;-78
2021/01/03 10:21:20;;;;;;;3.65;2.40;;;-5.70;95.50;;;;;;4974852;28;20038;-79
2021/01/03 10:23:57;;;;;;;2.67;2.20;;;-5.70;96.20;;;;;;4976121;28;20019;-78
2021/01/03 10:26:34;;;;;;;2.88;2.25;;;-5.70;96.10;;;;;;4975370;28;20027;-77
2021/01/03 10:29:02;;;;;;;3.78;1.83;;;-5.70;97.00;;;;;;4975584;28;20378;-77
2021/01/03 10:31:43;;;;;;;2.35;2.08;;;-5.70;99.00;;;;;;4975400;28;20086;-77
2021/01/03 10:34:09;;;;;;;2.42;2.05;;;-5.80;99.90;;;;;;4975173;28;20025;-78
2021/01/03 10:36:36;;;;;;;2.00;1.80;;;-5.80;99.90;;;;;;4975404;28;20501;-79
2021/01/03 10:39:04;;;;;;;2.42;2.10;;;-5.70;99.90;;;;;;4976024;28;20074;-79
2021/01/03 10:41:32;;;;;;;3.60;2.28;;;-5.70;99.20;;;;;;4976134;28;20031;-79
2021/01/03 10:43:58;;;;;;;2.78;1.88;;;-5.70;98.30;;;;;;4975532;28;20525;-78
2021/01/03 10:46:25;;;;;;;2.83;1.67;;;-5.60;97.90;;;;;;4975290;28;20394;-79
2021/01/03 10:48:51;;;;;;;2.58;2.25;;;-5.60;97.20;;;;;;4975632;28;20030;-83
2021/01/03 10:51:17;;;;;;;2.03;1.90;;;-5.60;97.00;;;;;;4975466;28;20026;-77
2021/01/03 10:53:43;;;;;;;4.10;2.05;;;-5.50;97.10;;;;;;4975094;28;20019;-77
2021/01/03 10:56:10;;;;;;;1.98;1.70;;;-5.50;96.60;;;;;;4974867;28;20031;-77
2021/01/03 10:58:39;;;;;;;1.90;1.80;;;-5.50;96.20;;;;;;4975182;28;20382;-77
2021/01/03 11:01:05;;;;;;;3.50;2.20;;;-5.50;96.10;;;;;;4974912;28;20023;-77
2021/01/03 11:03:31;;;;;;;2.10;1.90;;;-5.50;94.90;;;;;;4974810;28;20536;-80
2021/01/03 11:05:56;;;;;;;1.83;1.63;;;-5.50;94.60;;;;;;4975653;28;20099;-83
2021/01/03 11:08:22;;;;;;;3.40;1.92;;;-5.60;94.70;;;;;;4975445;28;20035;-83
2021/01/03 11:10:48;;;;;;;2.72;1.88;;;-5.60;94.20;;;;;;4975670;28;20026;-84
2021/01/03 11:13:13;;;;;;;1.80;1.70;;;-5.60;94.20;;;;;;4975118;28;20031;-84
2021/01/03 11:15:39;;;;;;;2.45;2.10;;;-5.50;94.30;;;;;;4975363;28;20031;-84
2021/01/03 11:18:05;;;;;;;2.25;2.00;;;-5.50;93.90;;;;;;4975157;28;20031;-86
2021/01/03 11:20:31;;;;;;;2.25;1.90;;;-5.60;93.80;;;;;;4975126;28;20043;-85
2021/01/03 11:22:56;;;;;;;1.75;1.65;;;-5.60;93.70;;;;;;4975814;28;20019;-87
2021/01/03 11:25:22;;;;;;;2.33;1.60;;;-5.60;93.90;;;;;;4975624;28;20390;-87
2021/01/03 11:27:48;;;;;;;2.08;1.90;;;-5.60;94.70;;;;;;4975438;28;20019;-86
2021/01/03 11:30:14;;;;;;;2.05;1.85;;;-5.50;94.50;;;;;;4975401;28;20027;-85
2021/01/03 11:32:43;;;;;;;2.63;2.17;;;-5.50;93.60;;;;;;4974736;28;20336;-87
2021/01/03 11:35:09;;;;;;;2.45;2.10;;;-5.50;92.80;;;;;;4977187;28;20027;-88
2021/01/03 11:37:35;;;;;;;2.75;1.90;;;-5.60;92.70;;;;;;4976450;28;20031;-83
2021/01/03 11:40:02;;;;;;;3.38;2.00;;;-5.70;92.40;;;;;;4975861;28;20486;-89
2021/01/03 11:42:34;;;;;;;2.58;2.00;;;-5.70;92.70;;;;;;4975402;28;20109;-91
2021/01/03 11:45:00;;;;;;;3.58;2.25;;;-5.70;92.90;;;;;;4975037;28;20051;-85
2021/01/03 11:47:26;;;;;;;2.83;2.28;;;-5.70;92.80;;;;;;4974804;28;20234;-77
2021/01/03 11:49:52;;;;;;;2.45;2.10;;;-5.70;93.00;;;;;;4974474;28;20019;-82
2021/01/03 11:52:18;;;;;;;5.18;3.65;;;-5.80;93.00;;;;;;4974335;28;20034;-84
2021/01/03 11:54:44;;;;;;;8.13;4.60;;;-5.80;93.80;;;;;;4974482;28;20031;-80
2021/01/03 11:57:10;;;;;;;12.38;5.70;;;-5.90;94.60;;;;;;4974362;28;20058;-83
2021/01/03 11:59:36;;;;;;;12.43;6.10;;;-5.90;94.60;;;;;;4973109;28;20042;-83
2021/01/03 12:02:10;;;;;;;17.38;6.47;;;-5.90;94.50;;;;;;4974379;28;20026;-82
2021/01/03 12:04:37;;;;;;;11.30;5.85;;;-5.80;93.90;;;;;;4975058;28;20027;-83
2021/01/03 12:07:07;;;;;;;14.52;6.47;;;-5.80;93.30;;;;;;4974682;28;20046;-83
2021/01/03 12:09:33;;;;;;;13.63;5.90;;;-5.90;93.20;;;;;;4974262;28;20054;-70
2021/01/03 12:12:03;;;;;;;12.20;5.75;;;-5.90;93.60;;;;;;4973966;28;20521;-73
2021/01/03 12:14:30;;;;;;;9.93;4.60;;;-6.00;93.20;;;;;;4973574;28;20051;-75
2021/01/03 12:16:57;;;;;;;10.15;4.32;;;-6.00;93.10;;;;;;4973878;28;20035;-79
2021/01/03 12:19:24;;;;;;;4.22;3.13;;;-5.90;93.10;;;;;;4973709;28;20047;-88
2021/01/03 12:21:50;;;;;;;5.88;3.30;;;-6.00;92.70;;;;;;4974197;28;20444;-73
2021/01/03 12:24:16;;;;;;;9.73;3.95;;;-6.00;92.40;;;;;;4973607;28;20026;-85
2021/01/03 12:26:42;;;;;;;5.28;3.35;;;-6.00;92.20;;;;;;4974634;28;20114;-89
2021/01/03 12:29:10;;;;;;;4.38;2.10;;;-5.90;92.50;;;;;;4973947;28;20375;-75
2021/01/03 12:31:42;;;;;;;6.30;3.17;;;-5.60;99.90;;;;;;4974914;28;20023;-88
2021/01/03 12:34:09;;;;;;;6.00;3.45;;;-3.20;99.90;;;;;;4975077;28;20054;-89
2021/01/03 12:36:35;;;;;;;4.20;2.88;;;-3.50;99.90;;;;;;4975339;28;20030;-89
2021/01/03 12:39:01;;;;;;;3.00;2.65;;;-4.20;99.90;;;;;;4974680;28;20061;-89
2021/01/03 12:41:27;;;;;;;5.90;2.83;;;-4.70;99.90;;;;;;4975125;28;20038;-88
2021/01/03 12:43:53;;;;;;;3.03;2.20;;;-5.00;99.90;;;;;;4973219;28;20494;-90
2021/01/03 12:46:31;;;;;;;2.40;1.90;;;-5.20;99.30;;;;;;4975020;28;20058;-90
2021/01/03 12:48:57;;;;;;;2.55;1.70;;;-5.30;96.30;;;;;;4975183;28;20089;-91
2021/01/03 12:51:23;;;;;;;2.15;1.58;;;-5.40;93.90;;;;;;4975188;28;20029;-91
2021/01/03 12:53:49;;;;;;;2.38;1.85;;;-5.50;93.20;;;;;;4975099;28;20402;-90
2021/01/03 12:56:16;;;;;;;2.40;1.60;;;-5.60;93.10;;;;;;4973353;28;20042;-88
2021/01/03 12:58:42;;;;;;;3.97;2.25;;;-5.60;93.00;;;;;;4972984;28;20518;-85
2021/01/03 13:01:07;;;;;;;3.00;2.00;;;-5.10;99.90;;;;;;4974420;28;20026;-89
2021/01/03 13:03:34;;;;;;;3.65;1.90;;;-5.10;99.90;;;;;;4975930;28;20078;-75
2021/01/03 13:06:01;;;;;;;3.65;2.70;;;-5.30;96.00;;;;;;4972850;28;20144;-75
2021/01/03 13:08:27;;;;;;;5.05;2.63;;;-5.50;94.60;;;;;;4972877;28;20031;-75
2021/01/03 13:10:53;;;;;;;5.13;3.00;;;-5.50;93.30;;;;;;4973015;28;20023;-76
2021/01/03 13:13:18;;;;;;;4.93;3.28;;;-5.60;92.80;;;;;;4972906;28;20066;-76
2021/01/03 13:15:44;;;;;;;4.63;2.90;;;-5.60;92.90;;;;;;4972984;28;20042;-77
2021/01/03 13:18:10;;;;;;;5.63;3.15;;;-5.70;92.70;;;;;;4972914;28;20042;-75
2021/01/03 13:20:36;;;;;;;4.03;2.88;;;-5.70;92.40;;;;;;4972588;28;20094;-77
2021/01/03 13:23:02;;;;;;;3.97;2.78;;;-5.70;92.30;;;;;;4972401;28;20516;-77
2021/01/03 13:25:27;;;;;;;5.82;3.25;;;-5.80;92.00;;;;;;4972613;28;20046;-76
2021/01/03 13:27:53;;;;;;;6.47;4.15;;;-5.80;91.90;;;;;;4973335;28;20035;-70
2021/01/03 13:30:20;;;;;;;9.93;4.78;;;-5.80;91.80;;;;;;4972837;28;20026;-77
2021/01/03 13:32:46;;;;;;;5.60;3.80;;;-5.80;91.90;;;;;;4973147;28;20031;-78
2021/01/03 13:35:14;;;;;;;8.70;3.90;;;-5.90;92.00;;;;;;4972821;28;20038;-76
2021/01/03 13:37:40;;;;;;;5.22;3.05;;;-5.90;91.90;;;;;;4972753;28;20054;-78
2021/01/03 13:40:06;;;;;;;3.45;2.35;;;-5.90;92.30;;;;;;4972507;28;20038;-77
2021/01/03 13:42:32;;;;;;;4.40;2.53;;;-5.90;91.70;;;;;;4972541;28;20038;-78
2021/01/03 13:44:58;;;;;;;2.70;2.08;;;-6.00;91.60;;;;;;4971675;28;20026;-79
2021/01/03 13:47:23;;;;;;;3.72;2.20;;;-6.00;91.40;;;;;;4972601;28;20479;-78
2021/01/03 13:49:49;;;;;;;5.10;2.30;;;-6.00;91.30;;;;;;4972358;28;20146;-77
2021/01/03 13:52:15;;;;;;;4.28;2.20;;;-6.10;91.00;;;;;;4967635;28;20105;-78
2021/01/03 13:54:42;;;;;;;5.45;2.30;;;-6.10;90.80;;;;;;4973628;28;20035;-83
2021/01/03 13:57:08;;;;;;;5.55;2.60;;;-6.20;90.60;;;;;;4975986;28;20119;-78
2021/01/03 13:59:37;;;;;;;4.78;2.65;;;-6.30;90.70;;;;;;4975799;28;20030;-79
2021/01/03 14:02:05;;;;;;;5.40;3.10;;;-6.30;90.70;;;;;;4976083;28;20027;-79
2021/01/03 14:04:30;;;;;;;6.97;3.70;;;-6.30;90.80;;;;;;4976171;28;20034;-79
2021/01/03 14:06:56;;;;;;;6.28;3.65;;;-6.30;91.00;;;;;;4975914;28;20022;-80
2021/01/03 14:09:22;;;;;;;9.63;5.68;;;-6.30;90.80;;;;;;4975877;28;20078;-78
2021/01/03 14:11:48;;;;;;;16.02;6.60;;;-6.30;90.40;;;;;;4975601;28;20035;-79
2021/01/03 14:14:14;;;;;;;12.90;6.70;;;-6.30;89.70;;;;;;4975586;28;20026;-75
2021/01/03 14:16:39;;;;;;;13.15;6.00;;;-6.40;88.70;;;;;;4975514;28;20096;-71
2021/01/03 14:19:05;;;;;;;5.82;3.05;;;-6.40;88.60;;;;;;4975516;28;20569;-71
2021/01/03 14:21:38;;;;;;;4.80;2.80;;;-6.40;88.40;;;;;;4972089;28;20570;-71
2021/01/03 14:24:05;;;;;;;1.92;1.80;;;-6.40;88.80;;;;;;4956250;29;20035;-71
2021/01/03 14:26:38;;;;;;;1.90;1.70;;;-6.40;89.10;;;;;;4955851;29;20027;-72
2021/01/03 14:29:05;;;;;;;2.42;2.13;;;-6.40;89.70;;;;;;4956343;29;20032;-72
2021/01/03 14:31:32;;;;;;;2.42;1.73;;;-6.40;88.70;;;;;;4956115;29;20078;-71
2021/01/03 14:33:58;;;;;;;3.90;2.60;;;-6.40;88.10;;;;;;4956110;29;20023;-71
2021/01/03 14:36:28;;;;;;;7.15;3.83;;;-6.50;87.60;;;;;;4955840;29;20081;-72
2021/01/03 14:38:58;;;;;;;14.53;6.53;;;-5.40;99.90;;;;;;4956108;29;20047;-72
2021/01/03 14:41:28;;;;;;;17.85;7.68;;;-4.40;99.90;;;;;;4971467;28;20497;-72
2021/01/03 14:43:54;;;;;;;19.45;7.00;;;-4.80;99.90;;;;;;4975427;28;20371;-72
2021/01/03 14:46:23;;;;;;;12.30;5.95;;;-5.40;99.90;;;;;;4973763;28;20066;-72
2021/01/03 14:48:52;;;;;;;10.32;4.85;;;-5.80;94.90;;;;;;4975237;28;20029;-72
2021/01/03 14:51:26;;;;;;;8.70;5.28;;;-6.00;92.30;;;;;;4975210;28;20106;-72
2021/01/03 14:54:18;;;;;;;7.15;3.75;;;-6.20;91.30;;;;;;4975435;28;20203;-72
2021/01/03 14:56:58;;;;;;;5.93;3.42;;;-6.20;91.00;;;;;;4974677;28;20031;-72
2021/01/03 14:59:43;;;;;;;4.35;3.10;;;-6.30;91.10;;;;;;4974919;28;20027;-78
2021/01/03 15:02:09;;;;;;;5.40;3.20;;;-6.20;90.80;;;;;;4974849;28;20051;-78
2021/01/03 15:04:46;;;;;;;4.68;3.05;;;-6.30;90.40;;;;;;4974734;28;20069;-79
2021/01/03 15:07:22;;;;;;;4.00;2.83;;;-6.30;90.10;;;;;;4974135;28;20035;-79
2021/01/03 15:09:51;;;;;;;4.35;3.25;;;-6.40;89.90;;;;;;4974145;28;20093;-73
2021/01/03 15:12:20;;;;;;;6.57;3.17;;;-6.40;89.60;;;;;;4974526;28;20034;-71
2021/01/03 15:14:47;;;;;;;4.80;2.85;;;-6.40;89.40;;;;;;4974662;28;20027;-73
2021/01/03 15:17:13;;;;;;;5.22;3.08;;;-6.40;88.70;;;;;;4974541;28;20024;-73
2021/01/03 15:20:05;;;;;;;5.20;3.10;;;-6.50;88.60;;;;;;4974155;28;20648;-72
2021/01/03 15:22:37;;;;;;;4.78;2.83;;;-6.50;88.90;;;;;;4974407;28;20030;-74
2021/01/03 15:25:09;;;;;;;3.67;3.03;;;-6.70;89.00;;;;;;4974421;28;20069;-74
2021/01/03 15:27:37;;;;;;;6.88;3.72;;;-6.70;88.90;;;;;;4974155;28;20023;-75
2021/01/03 15:30:08;;;;;;;6.47;4.13;;;-6.70;90.10;;;;;;4974195;28;20047;-73
2021/01/03 15:32:44;;;;;;;6.55;3.75;;;-6.70;89.60;;;;;;4974186;28;20073;-74
2021/01/03 15:35:16;;;;;;;5.00;3.33;;;-6.70;89.60;;;;;;4974425;28;20501;-73
2021/01/03 15:37:56;;;;;;;3.90;3.03;;;-6.70;89.20;;;;;;4973203;28;20014;-74
2021/01/03 15:40:27;;;;;;;5.60;3.65;;;-6.70;89.20;;;;;;4971312;28;20070;-74
2021/01/03 15:43:23;;;;;;;6.15;3.28;;;-6.80;89.50;;;;;;4972970;28;20081;-74
2021/01/03 15:46:04;;;;;;;4.10;2.85;;;-6.80;89.60;;;;;;4949464;29;20044;-74
2021/01/03 15:48:32;;;;;;;2.60;2.40;;;-6.80;89.70;;;;;;4954920;29;20106;-73
2021/01/03 15:50:58;;;;;;;4.28;2.53;;;-6.90;89.50;;;;;;4954917;28;20023;-74
2021/01/03 15:53:32;;;;;;;4.85;2.38;;;-6.90;88.80;;;;;;4954619;29;20042;-74
2021/01/03 15:55:58;;;;;;;2.85;2.20;;;-7.00;89.00;;;;;;4954934;29;20023;-75
2021/01/03 15:58:24;;;;;;;5.75;2.60;;;-6.90;89.70;;;;;;4954582;29;20024;-75
2021/01/03 16:00:50;;;;;;;4.20;2.40;;;-6.90;90.50;;;;;;4954679;29;20090;-74
2021/01/03 16:03:15;;;;;;;3.58;2.33;;;-6.90;91.10;;;;;;4954490;29;20023;-75
2021/01/03 16:05:42;;;;;;;2.22;2.00;;;-6.90;91.50;;;;;;4954445;29;20027;-74
2021/01/03 16:08:08;;;;;;;5.10;2.22;;;-6.90;91.60;;;;;;4954441;29;20030;-77
2021/01/03 16:10:34;;;;;;;2.28;2.08;;;-6.80;92.00;;;;;;4954434;29;20027;-76
2021/01/03 16:13:00;;;;;;;5.43;2.40;;;-6.80;91.40;;;;;;4954593;29;20061;-76
2021/01/03 16:15:26;;;;;;;2.25;2.05;;;-6.80;90.90;;;;;;4954286;29;20027;-75
2021/01/03 16:17:52;;;;;;;3.22;2.05;;;-6.90;91.00;;;;;;4954093;28;20046;-75
2021/01/03 16:20:20;;;;;;;2.60;2.10;;;-6.90;91.80;;;;;;4954167;29;20511;-76
2021/01/03 16:23:04;;;;;;;3.28;2.17;;;-6.90;92.60;;;;;;4954241;29;20023;-76
2021/01/03 16:25:51;;;;;;;2.75;1.90;;;-7.00;93.60;;;;;;4954272;29;20027;-76
2021/01/03 16:28:39;;;;;;;2.42;2.22;;;-7.00;94.40;;;;;;4965062;28;20054;-75
2021/01/03 16:31:24;;;;;;;5.82;2.45;;;-7.10;95.50;;;;;;4973779;28;20026;-75
2021/01/03 16:34:11;;;;;;;2.53;2.33;;;-7.10;96.40;;;;;;4954071;28;20391;-75
2021/01/03 16:37:02;;;;;;;2.90;1.98;;;-7.00;96.60;;;;;;4964379;28;20022;-76
2021/01/03 16:39:46;;;;;;;3.50;2.28;;;-7.00;97.10;;;;;;4973392;28;20045;-76
2021/01/03 16:42:39;;;;;;;4.90;2.78;;;-7.10;96.80;;;;;;4973430;28;20110;-76
2021/01/03 16:45:08;;;;;;;3.97;2.53;;;-7.00;96.80;;;;;;4973313;28;20023;-76
2021/01/03 16:48:23;;;;;;;5.80;2.75;;;-7.00;96.50;;;;;;4972984;28;20034;-77
2021/01/03 16:50:56;;;;;;;4.18;2.45;;;-7.10;97.10;;;;;;4931634;28;20491;-77
2021/01/03 16:53:33;;;;;;;5.75;2.80;;;-7.10;96.80;;;;;;4973076;28;20031;-78
2021/01/03 16:56:08;;;;;;;2.97;2.22;;;-7.10;96.50;;;;;;4973242;28;20134;-76
2021/01/03 16:58:52;;;;;;;8.40;2.90;;;-7.10;96.30;;;;;;4973030;28;20031;-76
2021/01/03 17:01:28;;;;;;;5.57;3.08;;;-7.10;96.90;;;;;;4973268;28;20034;-75
2021/01/03 17:04:01;;;;;;;4.47;2.13;;;-7.10;97.50;;;;;;4973173;28;20027;-81
2021/01/03 17:06:52;;;;;;;2.53;1.73;;;-7.10;97.50;;;;;;4971681;28;20110;-76
2021/01/03 17:09:32;;;;;;;1.75;1.65;;;-7.20;97.60;;;;;;4973028;28;20037;-77
2021/01/03 17:12:17;;;;;;;1.92;1.65;;;-7.10;99.90;;;;;;4973039;28;20047;-78
2021/01/03 17:15:03;;;;;;;1.83;1.60;;;-6.70;99.90;;;;;;4972993;28;20023;-80
2021/01/03 17:17:40;;;;;;;3.17;1.95;;;-6.80;99.90;;;;;;4972943;28;20034;-75
2021/01/03 17:20:12;;;;;;;2.17;1.80;;;-6.90;99.00;;;;;;4972797;28;20070;-75
2021/01/03 17:22:52;;;;;;;2.55;2.25;;;-7.00;97.80;;;;;;4972943;28;20027;-75
2021/01/03 17:25:20;;;;;;;3.20;2.10;;;-7.00;97.20;;;;;;4973114;28;20027;-75
2021/01/03 17:27:46;;;;;;;1.90;1.80;;;-7.10;96.90;;;;;;4972904;28;20082;-74
2021/01/03 17:30:20;;;;;;;1.80;1.70;;;-7.20;97.20;;;;;;4974822;28;20023;-75
2021/01/03 17:33:04;;;;;;;1.70;1.60;;;-7.20;98.00;;;;;;4975250;28;20031;-74
2021/01/03 17:35:51;;;;;;;1.60;1.50;;;-7.30;98.60;;;;;;4976478;28;20027;-75
2021/01/03 17:38:46;;;;;;;2.05;1.80;;;-7.10;99.90;;;;;;4976344;28;20081;-77
2021/01/03 17:41:14;;;;;;;3.22;1.85;;;-6.80;99.90;;;;;;4976736;28;20031;-77
2021/01/03 17:43:45;;;;;;;2.10;1.75;;;-6.90;99.90;;;;;;4976321;28;20034;-78
2021/01/03 17:46:13;;;;;;;3.72;2.05;;;-7.00;99.20;;;;;;4976424;28;20502;-77
2021/01/03 17:48:44;;;;;;;3.03;1.92;;;-7.10;98.60;;;;;;4976106;28;20019;-79
2021/01/03 17:51:11;;;;;;;3.70;2.20;;;-7.10;98.20;;;;;;4975132;28;20073;-76
2021/01/03 17:53:39;;;;;;;4.60;2.53;;;-7.10;98.10;;;;;;4976108;28;20106;-75
2021/01/03 17:56:07;;;;;;;9.40;3.83;;;-7.10;98.00;;;;;;4976031;28;20053;-77
2021/01/03 17:58:34;;;;;;;7.18;3.75;;;-7.20;98.10;;;;;;4975827;28;20478;-77
2021/01/03 18:01:00;;;;;;;4.97;3.45;;;-7.10;98.10;;;;;;4976153;28;20038;-77
2021/01/03 18:03:28;;;;;;;2.95;2.40;;;-7.20;97.70;;;;;;4975951;28;20097;-76
2021/01/03 18:05:55;;;;;;;2.10;1.90;;;-7.20;97.60;;;;;;4974802;28;20029;-76
2021/01/03 18:08:21;;;;;;;2.58;2.17;;;-7.20;97.70;;;;;;4975969;28;20328;-76
2021/01/03 18:10:47;;;;;;;3.30;2.42;;;-7.20;97.80;;;;;;4975788;28;20023;-77
2021/01/03 18:13:14;;;;;;;3.15;2.10;;;-7.20;97.90;;;;;;4975746;28;20035;-75
2021/01/03 18:15:40;;;;;;;1.80;1.67;;;-7.20;97.40;;;;;;4972201;28;20034;-77
2021/01/03 18:18:06;;;;;;;1.70;1.60;;;-7.20;97.30;;;;;;4973305;28;20038;-75
2021/01/03 18:20:32;;;;;;;1.58;1.48;;;-7.30;98.20;;;;;;4974615;28;20053;-76
2021/01/03 18:22:58;;;;;;;1.70;1.60;;;-7.40;98.50;;;;;;4974253;28;20026;-79
2021/01/03 18:25:23;;;;;;;1.50;1.40;;;-7.40;99.00;;;;;;4975626;28;20058;-78
2021/01/03 18:27:50;;;;;;;1.60;1.50;;;-7.40;99.10;;;;;;4975537;28;20027;-77
2021/01/03 18:30:24;;;;;;;1.60;1.50;;;-7.50;99.70;;;;;;4975552;28;20073;-78
2021/01/03 18:32:52;;;;;;;1.40;1.30;;;-7.50;99.90;;;;;;4975601;28;20478;-79